sensor_id;sensor_type;location;lat;lon;timestamp;P1;durP1;ratioP1;P2;durP2;ratioP2
12356;SDS011;6243;51.244;6.774;2023-05-08T17:40:33;9.10;;;8.30;;
12356;SDS011;6243;51.244;6.774;2023-05-08T17:42:58;9.67;;;8.67;;
12356;SDS011;6243;51.244;6.774;2023-05-08T17:45:24;9.83;;;8.97;;
12356;SDS011;6243;51.244;6.774;2023-05-08T17:47:50;10.00;;;8.80;;
12356;SDS011;6243;51.244;6.774;2023-05-08T17:50:15;8.53;;;7.73;;
12356;SDS011;6243;51.244;6.774;2023-05-08T17:52:41;9.83;;;8.43;;
12356;SDS011;6243;51.244;6.774;2023-05-08T17:55:07;8.93;;;7.93;;
12356;SDS011;6243;51.244;6.774;2023-05-08T17:57:35;8.90;;;8.10;;
12356;SDS011;6243;51.244;6.774;2023-05-08T18:00:00;9.20;;;8.40;;
12356;SDS011;6243;51.244;6.774;2023-05-08T18:02:26;9.07;;;8.13;;
12356;SDS011;6243;51.244;6.774;2023-05-08T18:04:51;8.90;;;8.10;;
12356;SDS011;6243;51.244;6.774;2023-05-08T18:07:17;8.80;;;8.10;;
12356;SDS011;6243;51.244;6.774;2023-05-08T18:09:42;8.50;;;7.80;;
12356;SDS011;6243;51.244;6.774;2023-05-08T18:12:08;9.57;;;8.70;;
12356;SDS011;6243;51.244;6.774;2023-05-08T18:14:35;8.07;;;7.37;;
12356;SDS011;6243;51.244;6.774;2023-05-08T18:17:00;9.23;;;8.37;;
12356;SDS011;6243;51.244;6.774;2023-05-08T18:19:26;9.40;;;8.60;;
12356;SDS011;6243;51.244;6.774;2023-05-08T18:21:51;8.60;;;7.80;;
12356;SDS011;6243;51.244;6.774;2023-05-08T18:24:17;9.20;;;8.30;;
12356;SDS011;6243;51.244;6.774;2023-05-08T18:26:44;9.00;;;8.10;;
12356;SDS011;6243;51.244;6.774;2023-05-08T18:29:10;10.03;;;9.07;;
12356;SDS011;6243;51.244;6.774;2023-05-08T18:31:37;8.70;;;7.83;;
12356;SDS011;6243;51.244;6.774;2023-05-08T18:34:02;9.40;;;7.97;;
12356;SDS011;6243;51.244;6.774;2023-05-08T18:36:28;10.77;;;9.67;;
12356;SDS011;6243;51.244;6.774;2023-05-08T18:38:53;8.60;;;7.90;;
12356;SDS011;6243;51.244;6.774;2023-05-08T18:41:19;10.23;;;9.20;;
12356;SDS011;6243;51.244;6.774;2023-05-08T18:43:44;9.90;;;8.30;;
12356;SDS011;6243;51.244;6.774;2023-05-08T18:46:10;9.10;;;8.20;;
12356;SDS011;6243;51.244;6.774;2023-05-08T18:48:38;8.10;;;7.40;;
12356;SDS011;6243;51.244;6.774;2023-05-08T18:51:04;8.33;;;7.63;;
12356;SDS011;6243;51.244;6.774;2023-05-08T18:53:29;8.07;;;7.30;;
12356;SDS011;6243;51.244;6.774;2023-05-08T18:55:55;7.37;;;6.70;;
12356;SDS011;6243;51.244;6.774;2023-05-08T18:58:20;7.87;;;7.17;;
12356;SDS011;6243;51.244;6.774;2023-05-08T19:00:46;7.67;;;6.80;;
12356;SDS011;6243;51.244;6.774;2023-05-08T19:03:11;8.17;;;6.70;;
12356;SDS011;6243;51.244;6.774;2023-05-08T19:05:38;7.07;;;6.37;;
12356;SDS011;6243;51.244;6.774;2023-05-08T19:08:04;6.40;;;5.80;;
12356;SDS011;6243;51.244;6.774;2023-05-08T19:10:30;6.83;;;6.23;;
12356;SDS011;6243;51.244;6.774;2023-05-08T19:12:55;6.93;;;6.33;;
12356;SDS011;6243;51.244;6.774;2023-05-08T19:15:21;6.80;;;6.03;;
12356;SDS011;6243;51.244;6.774;2023-05-08T19:17:46;7.27;;;6.17;;
12356;SDS011;6243;51.244;6.774;2023-05-08T19:20:12;7.53;;;5.97;;
12356;SDS011;6243;51.244;6.774;2023-05-08T19:22:39;6.90;;;6.23;;
12356;SDS011;6243;51.244;6.774;2023-05-08T19:25:05;7.00;;;6.30;;
12356;SDS011;6243;51.244;6.774;2023-05-08T19:27:31;7.13;;;6.53;;
12356;SDS011;6243;51.244;6.774;2023-05-08T19:29:56;6.37;;;5.87;;
12356;SDS011;6243;51.244;6.774;2023-05-08T19:32:22;6.87;;;6.27;;
12356;SDS011;6243;51.244;6.774;2023-05-08T19:34:47;6.57;;;5.97;;
12356;SDS011;6243;51.244;6.774;2023-05-08T19:37:13;7.47;;;6.87;;
12356;SDS011;6243;51.244;6.774;2023-05-08T19:39:40;9.90;;;6.80;;
12356;SDS011;6243;51.244;6.774;2023-05-08T19:42:05;7.83;;;7.10;;
12356;SDS011;6243;51.244;6.774;2023-05-08T19:44:31;16.50;;;15.00;;
12356;SDS011;6243;51.244;6.774;2023-05-08T19:46:56;8.77;;;7.97;;
12356;SDS011;6243;51.244;6.774;2023-05-08T19:49:22;6.50;;;6.00;;
12356;SDS011;6243;51.244;6.774;2023-05-08T19:51:47;7.10;;;6.40;;
12356;SDS011;6243;51.244;6.774;2023-05-08T19:54:13;7.43;;;6.50;;
12356;SDS011;6243;51.244;6.774;2023-05-08T19:56:40;9.07;;;6.97;;
12356;SDS011;6243;51.244;6.774;2023-05-08T19:59:05;7.63;;;6.93;;
12356;SDS011;6243;51.244;6.774;2023-05-08T20:01:31;7.00;;;6.30;;
12356;SDS011;6243;51.244;6.774;2023-05-08T20:03:56;8.07;;;6.93;;
12356;SDS011;6243;51.244;6.774;2023-05-08T20:06:22;6.77;;;6.10;;
12356;SDS011;6243;51.244;6.774;2023-05-08T20:08:47;7.33;;;6.63;;
12356;SDS011;6243;51.244;6.774;2023-05-08T20:11:13;8.57;;;6.33;;
12356;SDS011;6243;51.244;6.774;2023-05-08T20:13:40;7.40;;;6.70;;
12356;SDS011;6243;51.244;6.774;2023-05-08T20:16:06;7.33;;;6.63;;
12356;SDS011;6243;51.244;6.774;2023-05-08T20:18:32;7.00;;;6.40;;
12356;SDS011;6243;51.244;6.774;2023-05-08T20:20:58;7.63;;;6.93;;
12356;SDS011;6243;51.244;6.774;2023-05-08T20:23:23;7.00;;;6.40;;
12356;SDS011;6243;51.244;6.774;2023-05-08T20:25:49;8.33;;;6.57;;
12356;SDS011;6243;51.244;6.774;2023-05-08T20:28:14;7.10;;;6.50;;
12356;SDS011;6243;51.244;6.774;2023-05-08T20:30:41;6.20;;;5.63;;
12356;SDS011;6243;51.244;6.774;2023-05-08T20:33:07;7.07;;;6.47;;
12356;SDS011;6243;51.244;6.774;2023-05-08T20:35:33;7.43;;;6.77;;
12356;SDS011;6243;51.244;6.774;2023-05-08T20:37:58;6.40;;;5.90;;
12356;SDS011;6243;51.244;6.774;2023-05-08T20:40:24;6.63;;;6.07;;
12356;SDS011;6243;51.244;6.774;2023-05-08T20:42:49;6.33;;;5.83;;
12356;SDS011;6243;51.244;6.774;2023-05-08T20:45:15;7.23;;;6.60;;
12356;SDS011;6243;51.244;6.774;2023-05-08T20:47:42;7.73;;;6.97;;
12356;SDS011;6243;51.244;6.774;2023-05-08T20:50:07;6.80;;;6.30;;
12356;SDS011;6243;51.244;6.774;2023-05-08T20:52:33;7.40;;;6.70;;
12356;SDS011;6243;51.244;6.774;2023-05-08T20:54:58;7.40;;;6.80;;
12356;SDS011;6243;51.244;6.774;2023-05-08T20:57:24;7.27;;;6.67;;
12356;SDS011;6243;51.244;6.774;2023-05-08T20:59:50;7.60;;;6.97;;
12356;SDS011;6243;51.244;6.774;2023-05-08T21:02:15;7.63;;;6.73;;
12356;SDS011;6243;51.244;6.774;2023-05-08T21:04:42;7.33;;;6.73;;
12356;SDS011;6243;51.244;6.774;2023-05-08T21:07:08;7.80;;;7.20;;
12356;SDS011;6243;51.244;6.774;2023-05-08T21:09:33;7.90;;;7.20;;
12356;SDS011;6243;51.244;6.774;2023-05-08T21:11:59;7.90;;;7.20;;
12356;SDS011;6243;51.244;6.774;2023-05-08T21:14:24;8.07;;;7.37;;
12356;SDS011;6243;51.244;6.774;2023-05-08T21:16:50;8.07;;;7.27;;
12356;SDS011;6243;51.244;6.774;2023-05-08T21:19:15;8.37;;;7.67;;
12356;SDS011;6243;51.244;6.774;2023-05-08T21:21:42;8.20;;;7.50;;
12356;SDS011;6243;51.244;6.774;2023-05-08T21:24:08;9.00;;;8.10;;
12356;SDS011;6243;51.244;6.774;2023-05-08T21:26:33;8.20;;;7.40;;
12356;SDS011;6243;51.244;6.774;2023-05-08T21:28:59;7.90;;;7.20;;
12356;SDS011;6243;51.244;6.774;2023-05-08T21:31:25;8.67;;;7.87;;
12356;SDS011;6243;51.244;6.774;2023-05-08T21:33:50;7.83;;;7.13;;
12356;SDS011;6243;51.244;6.774;2023-05-08T21:36:16;8.77;;;8.07;;
12356;SDS011;6243;51.244;6.774;2023-05-08T21:38:42;9.20;;;8.40;;
12356;SDS011;6243;51.244;6.774;2023-05-08T21:41:08;8.50;;;7.80;;
12356;SDS011;6243;51.244;6.774;2023-05-08T21:43:34;9.43;;;8.60;;
12356;SDS011;6243;51.244;6.774;2023-05-08T21:45:59;9.37;;;8.47;;
12356;SDS011;6243;51.244;6.774;2023-05-08T21:48:25;9.13;;;8.33;;
12356;SDS011;6243;51.244;6.774;2023-05-08T21:50:50;9.67;;;8.77;;
12356;SDS011;6243;51.244;6.774;2023-05-08T21:53:16;9.87;;;8.87;;
12356;SDS011;6243;51.244;6.774;2023-05-08T21:55:43;10.73;;;8.70;;
12356;SDS011;6243;51.244;6.774;2023-05-08T21:58:08;9.83;;;9.03;;
12356;SDS011;6243;51.244;6.774;2023-05-08T22:00:33;9.87;;;8.97;;
12356;SDS011;6243;51.244;6.774;2023-05-08T22:02:59;10.33;;;9.27;;
12356;SDS011;6243;51.244;6.774;2023-05-08T22:05:25;10.10;;;9.17;;
12356;SDS011;6243;51.244;6.774;2023-05-08T22:07:50;10.00;;;9.00;;
12356;SDS011;6243;51.244;6.774;2023-05-08T22:10:16;10.43;;;9.43;;
12356;SDS011;6243;51.244;6.774;2023-05-08T22:12:43;9.67;;;8.87;;
12356;SDS011;6243;51.244;6.774;2023-05-08T22:15:09;10.60;;;9.03;;
12356;SDS011;6243;51.244;6.774;2023-05-08T22:17:34;10.13;;;9.13;;
12356;SDS011;6243;51.244;6.774;2023-05-08T22:20:00;10.70;;;9.73;;
12356;SDS011;6243;51.244;6.774;2023-05-08T22:22:25;10.60;;;9.07;;
12356;SDS011;6243;51.244;6.774;2023-05-08T22:24:51;10.70;;;9.70;;
12356;SDS011;6243;51.244;6.774;2023-05-08T22:27:16;10.77;;;9.53;;
12356;SDS011;6243;51.244;6.774;2023-05-08T22:29:43;10.60;;;9.63;;
12356;SDS011;6243;51.244;6.774;2023-05-08T22:32:09;11.07;;;10.07;;
12356;SDS011;6243;51.244;6.774;2023-05-08T22:34:34;10.40;;;9.40;;
12356;SDS011;6243;51.244;6.774;2023-05-08T22:37:00;10.20;;;9.30;;
12356;SDS011;6243;51.244;6.774;2023-05-08T22:39:25;9.97;;;9.07;;
12356;SDS011;6243;51.244;6.774;2023-05-08T22:41:51;10.40;;;9.33;;
12356;SDS011;6243;51.244;6.774;2023-05-08T22:44:17;10.10;;;9.10;;
12356;SDS011;6243;51.244;6.774;2023-05-08T22:46:44;10.63;;;9.73;;
12356;SDS011;6243;51.244;6.774;2023-05-08T22:49:10;10.93;;;9.83;;
12356;SDS011;6243;51.244;6.774;2023-05-08T22:51:35;10.27;;;9.27;;
12356;SDS011;6243;51.244;6.774;2023-05-08T22:54:01;11.47;;;10.47;;
12356;SDS011;6243;51.244;6.774;2023-05-08T22:56:26;12.23;;;11.03;;
12356;SDS011;6243;51.244;6.774;2023-05-08T22:58:52;10.60;;;9.60;;
12356;SDS011;6243;51.244;6.774;2023-05-08T23:01:17;11.70;;;10.70;;
12356;SDS011;6243;51.244;6.774;2023-05-08T23:03:44;11.63;;;10.00;;
12356;SDS011;6243;51.244;6.774;2023-05-08T23:06:10;12.87;;;9.73;;
12356;SDS011;6243;51.244;6.774;2023-05-08T23:08:35;11.77;;;10.57;;
12356;SDS011;6243;51.244;6.774;2023-05-08T23:11:01;10.97;;;9.93;;
12356;SDS011;6243;51.244;6.774;2023-05-08T23:13:26;11.70;;;10.50;;
12356;SDS011;6243;51.244;6.774;2023-05-08T23:15:52;11.67;;;10.47;;
12356;SDS011;6243;51.244;6.774;2023-05-08T23:18:17;11.10;;;10.03;;
12356;SDS011;6243;51.244;6.774;2023-05-08T23:20:44;12.30;;;11.17;;
12356;SDS011;6243;51.244;6.774;2023-05-08T23:23:10;12.47;;;11.23;;
12356;SDS011;6243;51.244;6.774;2023-05-08T23:25:36;12.20;;;10.73;;
12356;SDS011;6243;51.244;6.774;2023-05-08T23:28:01;12.57;;;11.13;;
12356;SDS011;6243;51.244;6.774;2023-05-08T23:30:27;13.33;;;11.67;;
12356;SDS011;6243;51.244;6.774;2023-05-08T23:32:52;12.30;;;11.10;;
12356;SDS011;6243;51.244;6.774;2023-05-08T23:35:18;11.60;;;10.53;;
12356;SDS011;6243;51.244;6.774;2023-05-08T23:37:45;12.50;;;11.20;;
12356;SDS011;6243;51.244;6.774;2023-05-08T23:40:10;12.40;;;11.20;;
12356;SDS011;6243;51.244;6.774;2023-05-08T23:42:36;13.07;;;10.80;;
12356;SDS011;6243;51.244;6.774;2023-05-08T23:45:02;10.83;;;9.87;;
12356;SDS011;6243;51.244;6.774;2023-05-08T23:47:28;12.37;;;11.17;;
12356;SDS011;6243;51.244;6.774;2023-05-08T23:49:53;12.37;;;11.27;;
12356;SDS011;6243;51.244;6.774;2023-05-08T23:52:19;12.43;;;11.23;;
12356;SDS011;6243;51.244;6.774;2023-05-08T23:54:46;12.57;;;11.27;;
12356;SDS011;6243;51.244;6.774;2023-05-08T23:57:11;13.27;;;11.93;;
12356;SDS011;6243;51.244;6.774;2023-05-08T23:59:37;13.00;;;11.77;;
